createdAt,value
2018-11-01T00:02:47.033Z,5.37
2018-11-01T00:07:51.279Z,6.77
2018-11-01T00:12:55.510Z,6.20
2018-11-01T00:17:59.792Z,5.70
2018-11-01T00:23:04.042Z,6.10
2018-11-01T00:28:08.633Z,6.47
2018-11-01T00:33:12.724Z,5.83
2018-11-01T00:38:17.129Z,6.30
2018-11-01T00:43:21.359Z,6.50
2018-11-01T00:48:25.538Z,6.03
2018-11-01T00:53:30.090Z,5.67
2018-11-01T00:58:34.389Z,6.37
2018-11-01T01:03:38.682Z,5.87
2018-11-01T01:08:43.126Z,5.87
2018-11-01T01:13:47.317Z,5.40
2018-11-01T01:18:51.762Z,7.10
2018-11-01T01:23:56.095Z,6.27
2018-11-01T01:29:00.424Z,5.97
2018-11-01T01:34:04.662Z,6.17
2018-11-01T01:39:09.546Z,5.87
2018-11-01T01:44:14.093Z,5.60
2018-11-01T01:49:18.465Z,5.80
2018-11-01T01:54:22.669Z,5.50
2018-11-01T01:59:27.212Z,6.03
2018-11-01T02:04:31.784Z,5.90
2018-11-01T02:09:36.210Z,5.47
2018-11-01T02:14:40.666Z,5.87
2018-11-01T02:19:45.051Z,5.87
2018-11-01T02:24:49.766Z,6.43
2018-11-01T02:29:53.903Z,5.97
2018-11-01T02:34:58.060Z,5.77
2018-11-01T02:40:02.521Z,6.10
2018-11-01T02:45:08.802Z,6.00
2018-11-01T02:50:13.984Z,6.00
2018-11-01T02:55:18.210Z,6.80
2018-11-01T03:00:22.818Z,5.83
2018-11-01T03:05:27.266Z,6.13
2018-11-01T03:10:31.548Z,6.40
2018-11-01T03:15:36.042Z,6.37
2018-11-01T03:20:40.862Z,5.97
2018-11-01T03:25:45.224Z,6.20
2018-11-01T03:30:50.304Z,5.77
2018-11-01T03:35:54.632Z,5.63
2018-11-01T03:40:59.234Z,6.20
2018-11-01T03:46:03.470Z,6.60
2018-11-01T03:51:07.672Z,6.40
2018-11-01T03:56:12.167Z,6.10
2018-11-01T04:01:16.310Z,6.90
2018-11-01T04:06:20.571Z,6.63
2018-11-01T04:11:24.869Z,6.80
2018-11-01T04:16:28.996Z,7.03
2018-11-01T04:21:33.087Z,6.20
2018-11-01T04:26:37.397Z,6.03
2018-11-01T04:31:42.048Z,7.63
2018-11-01T04:36:46.474Z,6.87
2018-11-01T04:41:50.832Z,7.13
2018-11-01T04:46:55.389Z,7.20
2018-11-01T04:51:59.606Z,7.67
2018-11-01T04:57:04.222Z,7.70
2018-11-01T05:02:08.450Z,6.93
2018-11-01T05:07:12.912Z,7.27
2018-11-01T05:12:17.486Z,6.33
2018-11-01T05:17:21.698Z,7.47
2018-11-01T05:22:25.994Z,7.60
2018-11-01T05:27:30.990Z,7.13
2018-11-01T05:32:40.672Z,10.23
2018-11-01T05:37:45.132Z,7.07
2018-11-01T05:42:50.225Z,7.73
2018-11-01T05:47:54.315Z,7.10
2018-11-01T05:52:58.585Z,6.80
2018-11-01T05:58:02.708Z,7.27
2018-11-01T06:03:07.140Z,8.07
2018-11-01T06:08:31.134Z,8.53
2018-11-01T06:13:35.380Z,8.50
2018-11-01T06:18:39.809Z,8.70
2018-11-01T06:23:44.140Z,7.40
2018-11-01T06:28:48.554Z,8.00
2018-11-01T06:33:52.887Z,8.27
2018-11-01T06:38:57.296Z,8.73
2018-11-01T06:44:02.146Z,8.40
2018-11-01T06:49:06.340Z,8.20
2018-11-01T06:54:10.698Z,8.73
2018-11-01T06:59:15.556Z,8.40
2018-11-01T07:04:19.776Z,8.47
2018-11-01T07:09:24.179Z,8.23
2018-11-01T07:14:29.368Z,9.30
2018-11-01T07:25:11.567Z,9.33
2018-11-01T07:30:17.164Z,8.47
2018-11-01T07:35:22.632Z,8.60
2018-11-01T07:40:31.862Z,8.83
2018-11-01T07:45:36.669Z,8.67
2018-11-01T07:50:41.755Z,8.03
2018-11-01T07:55:46.262Z,9.10
2018-11-01T08:00:50.775Z,8.47
2018-11-01T08:05:55.229Z,8.80
2018-11-01T08:10:59.523Z,7.90
2018-11-01T08:16:04.315Z,7.27
2018-11-01T08:21:09.244Z,8.03
2018-11-01T08:26:13.822Z,8.73
2018-11-01T08:31:18.130Z,8.20
2018-11-01T08:36:22.928Z,8.87
2018-11-01T08:41:27.221Z,8.17
2018-11-01T08:46:31.576Z,8.20
2018-11-01T08:51:36.270Z,8.80
2018-11-01T08:56:40.860Z,7.60
2018-11-01T09:01:45.379Z,8.83
2018-11-01T09:06:50.336Z,8.67
2018-11-01T09:11:54.776Z,8.80
2018-11-01T09:16:59.201Z,9.10
2018-11-01T09:22:03.622Z,8.40
2018-11-01T09:27:08.221Z,8.60
2018-11-01T09:32:12.660Z,8.20
2018-11-01T09:37:17.551Z,8.83
2018-11-01T09:42:21.711Z,9.70
2018-11-01T09:47:26.556Z,9.20
2018-11-01T09:52:30.791Z,9.27
2018-11-01T09:57:35.120Z,9.80
2018-11-01T10:02:44.847Z,9.77
2018-11-01T10:07:49.444Z,9.90
2018-11-01T10:12:53.819Z,10.50
2018-11-01T10:17:58.790Z,10.47
2018-11-01T10:23:04.299Z,10.57
2018-11-01T10:28:08.843Z,9.93
2018-11-01T10:33:13.275Z,10.07
2018-11-01T10:38:18.520Z,10.70
2018-11-01T10:43:23.893Z,11.83
2018-11-01T10:48:28.229Z,11.53
2018-11-01T10:53:32.902Z,11.33
2018-11-01T10:58:37.158Z,10.37
2018-11-01T11:03:41.363Z,10.60
2018-11-01T11:08:46.679Z,11.30
2018-11-01T11:13:51.295Z,10.60
2018-11-01T11:18:56.028Z,10.73
2018-11-01T11:24:01.613Z,11.33
2018-11-01T11:29:06.331Z,10.50
2018-11-01T11:34:10.885Z,10.90
2018-11-01T11:39:15.483Z,10.57
2018-11-01T11:44:20.703Z,10.17
2018-11-01T11:49:26.020Z,9.70
2018-11-01T11:54:30.683Z,10.67
2018-11-01T11:59:35.126Z,10.00
2018-11-01T12:04:39.548Z,10.33
2018-11-01T12:09:43.705Z,10.43
2018-11-01T12:14:48.114Z,9.43
2018-11-01T12:19:52.435Z,9.90
2018-11-01T12:24:56.719Z,9.57
2018-11-01T12:30:01.202Z,11.27
2018-11-01T12:35:05.608Z,10.70
2018-11-01T12:40:12.747Z,10.93
2018-11-01T12:45:17.233Z,10.67
2018-11-01T12:50:21.804Z,10.50
2018-11-01T12:55:26.053Z,15.23
2018-11-01T13:00:30.461Z,11.60
2018-11-01T13:05:34.902Z,11.60
2018-11-01T13:10:48.610Z,12.20
2018-11-01T13:15:52.955Z,12.07
2018-11-01T13:20:57.376Z,12.27
2018-11-01T13:26:01.629Z,13.30
2018-11-01T13:31:06.429Z,13.83
2018-11-01T13:36:10.737Z,13.57
2018-11-01T13:41:16.978Z,12.83
2018-11-01T13:46:21.632Z,14.77
2018-11-01T13:51:26.019Z,12.87
2018-11-01T13:56:30.519Z,12.90
2018-11-01T14:01:34.713Z,13.37
2018-11-01T14:06:39.099Z,13.53
2018-11-01T14:11:43.358Z,12.23
2018-11-01T14:16:47.625Z,12.17
2018-11-01T14:21:51.845Z,12.37
2018-11-01T14:26:56.231Z,11.93
2018-11-01T14:32:00.540Z,11.90
2018-11-01T14:37:05.469Z,11.93
2018-11-01T14:42:09.674Z,12.07
2018-11-01T14:47:14.419Z,12.90
2018-11-01T14:52:19.216Z,12.40
2018-11-01T14:57:24.441Z,12.67
2018-11-01T15:02:37.042Z,12.83
2018-11-01T15:07:41.659Z,12.43
2018-11-01T15:12:46.047Z,13.53
2018-11-01T15:17:50.773Z,13.10
2018-11-01T15:22:55.015Z,13.27
2018-11-01T15:28:00.601Z,13.60
2018-11-01T15:33:05.816Z,13.00
2018-11-01T15:38:10.440Z,13.53
2018-11-01T15:43:15.249Z,12.30
2018-11-01T15:48:20.440Z,12.33
2018-11-01T15:53:29.944Z,12.40
2018-11-01T15:58:34.718Z,11.93
2018-11-01T16:03:44.481Z,11.63
2018-11-01T16:08:48.916Z,11.93
2018-11-01T16:13:53.519Z,12.80
2018-11-01T16:18:58.229Z,13.03
2018-11-01T16:24:03.217Z,12.27
2018-11-01T16:29:07.701Z,13.40
2018-11-01T16:34:12.328Z,13.33
2018-11-01T16:39:16.649Z,12.80
2018-11-01T16:44:21.239Z,12.53
2018-11-01T16:49:25.694Z,13.07
2018-11-01T16:54:30.285Z,11.77
2018-11-01T16:59:34.888Z,11.30
2018-11-01T17:04:39.589Z,10.93
2018-11-01T17:09:44.140Z,10.97
2018-11-01T17:14:48.582Z,10.60
2018-11-01T17:19:53.186Z,9.80
2018-11-01T17:24:58.101Z,10.03
2018-11-01T17:30:02.501Z,9.30
2018-11-01T17:35:07.324Z,8.63
2018-11-01T17:40:22.905Z,8.93
2018-11-01T17:45:27.291Z,9.23
2018-11-01T17:50:32.049Z,8.80
2018-11-01T17:55:36.703Z,8.67
2018-11-01T18:00:41.887Z,9.80
2018-11-01T18:05:46.577Z,8.93
2018-11-01T18:10:51.295Z,8.47
2018-11-01T18:15:56.212Z,8.67
2018-11-01T18:21:10.435Z,8.40
2018-11-01T18:26:14.795Z,8.20
2018-11-01T18:31:19.804Z,7.50
2018-11-01T18:36:29.341Z,8.10
2018-11-01T18:41:34.917Z,7.30
2018-11-01T18:46:40.652Z,7.43
2018-11-01T18:51:45.517Z,7.30
2018-11-01T18:56:50.529Z,7.73
2018-11-01T19:01:55.273Z,7.83
2018-11-01T19:07:00.120Z,7.80
2018-11-01T19:12:04.774Z,7.60
2018-11-01T19:17:09.568Z,7.40
2018-11-01T19:22:15.350Z,7.37
2018-11-01T19:27:21.335Z,7.67
2018-11-01T19:32:25.279Z,7.80
2018-11-01T19:37:30.285Z,7.77
2018-11-01T19:42:34.893Z,8.30
2018-11-01T19:47:39.851Z,8.20
2018-11-01T19:52:50.049Z,8.70
2018-11-01T19:57:54.755Z,7.93
2018-11-01T20:02:59.411Z,8.20
2018-11-01T20:08:05.318Z,8.30
2018-11-01T20:13:09.807Z,8.90
2018-11-01T20:18:14.477Z,9.23
2018-11-01T20:23:18.891Z,8.67
2018-11-01T20:28:24.026Z,9.17
2018-11-01T20:33:28.553Z,8.27
2018-11-01T20:38:33.172Z,8.37
2018-11-01T20:43:37.761Z,9.27
2018-11-01T20:48:43.172Z,9.13
2018-11-01T20:53:47.865Z,9.63
2018-11-01T20:58:52.648Z,9.07
2018-11-01T21:03:57.973Z,9.37
2018-11-01T21:09:02.484Z,9.27
2018-11-01T21:14:06.907Z,9.23
2018-11-01T21:19:13.335Z,9.57
2018-11-01T21:24:18.077Z,9.10
2018-11-01T21:29:22.491Z,9.67
2018-11-01T21:34:49.494Z,9.77
2018-11-01T21:39:59.777Z,9.23
2018-11-01T21:45:04.571Z,8.30
2018-11-01T21:50:09.457Z,8.00
2018-11-01T21:55:14.156Z,7.20
2018-11-01T22:00:18.915Z,7.60
2018-11-01T22:05:24.035Z,6.90
2018-11-01T22:10:28.465Z,7.63
2018-11-01T22:15:32.898Z,7.67
2018-11-01T22:20:37.415Z,6.57
2018-11-01T22:25:42.361Z,6.90
2018-11-01T22:30:46.855Z,7.67
2018-11-01T22:35:51.493Z,7.50
2018-11-01T22:41:01.091Z,7.80
2018-11-01T22:46:05.648Z,8.07
2018-11-01T22:51:10.301Z,7.70
2018-11-01T22:56:14.956Z,6.80
2018-11-01T23:01:19.513Z,6.50
2018-11-01T23:06:24.141Z,7.60
2018-11-01T23:11:28.733Z,7.13
2018-11-01T23:16:33.543Z,6.00
2018-11-01T23:21:37.886Z,6.10
2018-11-01T23:26:42.206Z,6.20
2018-11-01T23:31:46.447Z,6.50
2018-11-01T23:36:55.995Z,5.83
2018-11-01T23:42:05.738Z,6.57
2018-11-01T23:47:15.650Z,6.23
2018-11-01T23:52:22.371Z,5.93
2018-11-01T23:57:26.470Z,6.07
